createdAt,value
2023-02-19T00:00:26.852Z,6.92
2023-02-19T00:03:29.853Z,6.86
2023-02-19T00:06:34.231Z,6.67
2023-02-19T00:09:37.141Z,6.60
2023-02-19T00:12:39.682Z,6.52
2023-02-19T00:15:42.517Z,6.39
2023-02-19T00:18:46.066Z,6.26
2023-02-19T00:21:52.710Z,6.18
2023-02-19T00:24:55.238Z,6.00
2023-02-19T00:27:58.222Z,5.85
2023-02-19T00:31:16.781Z,5.81
2023-02-19T00:34:19.746Z,5.71
2023-02-19T00:37:22.458Z,5.68
2023-02-19T00:40:26.196Z,5.52
2023-02-19T00:43:29.082Z,5.53
2023-02-19T00:46:40.986Z,5.44
2023-02-19T00:49:44.627Z,5.28
2023-02-19T00:52:47.478Z,5.32
2023-02-19T00:55:50.079Z,5.28
2023-02-19T00:58:53.689Z,5.36
2023-02-19T01:01:56.821Z,5.41
2023-02-19T01:04:59.918Z,5.49
2023-02-19T01:08:02.547Z,5.57
2023-02-19T01:11:07.274Z,5.24
2023-02-19T01:14:10.730Z,5.21
2023-02-19T01:17:13.714Z,5.07
2023-02-19T01:20:16.529Z,4.96
2023-02-19T01:23:19.459Z,4.79
2023-02-19T01:26:25.821Z,4.73
2023-02-19T01:29:29.039Z,4.70
2023-02-19T01:32:31.614Z,4.79
2023-02-19T01:35:35.182Z,4.61
2023-02-19T01:38:37.841Z,4.50
2023-02-19T01:41:41.989Z,4.51
2023-02-19T01:44:47.949Z,4.58
2023-02-19T01:47:57.890Z,4.64
2023-02-19T01:51:09.654Z,4.93
2023-02-19T01:54:15.911Z,4.75
2023-02-19T01:57:26.444Z,4.73
2023-02-19T02:00:30.032Z,4.70
2023-02-19T02:03:35.517Z,4.75
2023-02-19T02:06:45.597Z,4.53
2023-02-19T02:10:07.231Z,4.60
2023-02-19T02:13:10.201Z,4.64
2023-02-19T02:16:17.878Z,4.34
2023-02-19T02:19:45.314Z,4.30
2023-02-19T02:22:47.883Z,4.40
2023-02-19T02:26:09.149Z,4.36
2023-02-19T02:29:21.084Z,4.34
2023-02-19T02:32:43.405Z,4.42
2023-02-19T02:35:51.809Z,4.69
2023-02-19T02:38:56.962Z,4.66
2023-02-19T02:42:19.212Z,4.77
2023-02-19T02:45:36.107Z,4.83
2023-02-19T02:48:59.978Z,5.02
2023-02-19T02:52:23.424Z,5.20
2023-02-19T02:55:30.131Z,5.20
2023-02-19T02:58:34.546Z,5.09
2023-02-19T03:01:56.153Z,5.12
2023-02-19T03:05:38.193Z,5.21
2023-02-19T03:09:06.507Z,5.27
2023-02-19T03:12:34.189Z,5.37
2023-02-19T03:16:01.967Z,5.48
2023-02-19T03:19:19.880Z,5.53
2023-02-19T03:22:33.904Z,5.43
2023-02-19T03:25:58.078Z,5.77
2023-02-19T03:29:22.749Z,5.86
2023-02-19T03:32:42.343Z,5.87
2023-02-19T03:35:48.800Z,5.81
2023-02-19T03:39:07.835Z,5.81
2023-02-19T03:42:30.424Z,5.84
2023-02-19T03:45:46.163Z,5.93
2023-02-19T03:48:58.837Z,6.00
2023-02-19T03:52:14.117Z,5.91
2023-02-19T03:55:30.893Z,5.96
2023-02-19T03:59:22.105Z,6.26
2023-02-19T04:02:28.695Z,6.33
2023-02-19T04:05:37.233Z,6.35
2023-02-19T04:08:44.427Z,6.46
2023-02-19T04:11:51.394Z,6.66
2023-02-19T04:15:01.835Z,6.49
2023-02-19T04:18:09.166Z,6.49
2023-02-19T04:21:13.389Z,6.53
2023-02-19T04:24:39.382Z,6.80
2023-02-19T04:27:45.917Z,6.92
2023-02-19T04:30:49.096Z,7.04
2023-02-19T04:33:51.821Z,7.16
2023-02-19T04:36:54.758Z,7.22
2023-02-19T04:39:57.405Z,7.37
2023-02-19T04:43:00.387Z,7.37
2023-02-19T04:46:03.214Z,7.37
2023-02-19T04:49:06.336Z,7.35
2023-02-19T04:52:08.881Z,7.30
2023-02-19T04:55:12.066Z,7.36
2023-02-19T04:58:14.832Z,7.50
2023-02-19T05:01:18.039Z,7.43
2023-02-19T05:04:20.828Z,7.42
2023-02-19T05:07:23.746Z,7.31
2023-02-19T05:10:26.595Z,7.34
2023-02-19T05:13:29.773Z,7.31
2023-02-19T05:16:33.300Z,7.37
2023-02-19T05:19:36.308Z,7.34
2023-02-19T05:22:38.981Z,7.48
2023-02-19T05:25:41.934Z,7.44
2023-02-19T05:28:50.284Z,7.44
2023-02-19T05:31:53.281Z,7.35
2023-02-19T05:34:56.054Z,7.37
2023-02-19T05:37:58.942Z,7.40
2023-02-19T05:41:15.860Z,7.55
2023-02-19T05:44:18.724Z,7.41
2023-02-19T05:47:21.388Z,7.52
2023-02-19T05:50:25.480Z,7.53
2023-02-19T05:53:28.142Z,7.57
2023-02-19T05:56:35.199Z,7.62
2023-02-19T05:59:37.789Z,7.75
2023-02-19T06:02:40.901Z,7.75
2023-02-19T06:05:43.815Z,7.76
2023-02-19T06:08:48.942Z,7.80
2023-02-19T06:11:51.905Z,7.93
2023-02-19T06:14:54.478Z,7.88
2023-02-19T06:17:57.354Z,7.92
2023-02-19T06:21:08.604Z,8.00
2023-02-19T06:24:12.271Z,7.99
2023-02-19T06:27:14.996Z,8.09
2023-02-19T06:30:18.137Z,8.03
2023-02-19T06:33:21.759Z,8.19
2023-02-19T06:36:24.906Z,8.26
2023-02-19T06:39:27.926Z,8.24
2023-02-19T06:42:33.675Z,8.28
2023-02-19T06:45:36.274Z,8.26
2023-02-19T06:48:40.472Z,8.23
2023-02-19T06:51:43.105Z,8.25
2023-02-19T06:54:46.056Z,8.19
2023-02-19T06:57:48.668Z,8.24
2023-02-19T07:00:51.911Z,8.39
2023-02-19T07:03:54.668Z,8.42
2023-02-19T07:07:00.349Z,8.62
2023-02-19T07:10:04.098Z,8.98
2023-02-19T07:13:08.170Z,9.05
2023-02-19T07:16:12.484Z,9.22
2023-02-19T07:19:16.045Z,9.41
2023-02-19T07:22:18.663Z,9.61
2023-02-19T07:25:21.910Z,9.91
2023-02-19T07:28:24.922Z,10.20
2023-02-19T07:31:28.263Z,10.11
2023-02-19T07:34:30.942Z,10.37
2023-02-19T07:37:33.861Z,10.48
2023-02-19T07:40:37.178Z,10.66
2023-02-19T07:43:40.528Z,10.81
2023-02-19T07:46:45.175Z,11.11
2023-02-19T07:49:48.282Z,11.60
2023-02-19T07:52:51.382Z,11.87
2023-02-19T07:55:59.727Z,11.90
2023-02-19T07:59:02.397Z,11.91
2023-02-19T08:02:24.036Z,11.95
2023-02-19T08:05:32.307Z,12.05
2023-02-19T08:08:35.165Z,12.16
2023-02-19T08:11:56.768Z,12.22
2023-02-19T08:14:59.406Z,12.24
2023-02-19T08:18:02.284Z,12.22
2023-02-19T08:21:05.043Z,12.21
2023-02-19T08:24:08.009Z,12.10
2023-02-19T08:27:10.574Z,12.01
2023-02-19T08:30:13.589Z,11.90
2023-02-19T08:33:18.391Z,11.78
2023-02-19T08:36:21.514Z,11.75
2023-02-19T08:39:24.296Z,11.71
2023-02-19T08:42:28.753Z,11.64
2023-02-19T08:45:31.892Z,11.57
2023-02-19T08:48:34.872Z,11.52
2023-02-19T08:51:37.710Z,11.46
2023-02-19T08:54:41.046Z,11.48
2023-02-19T08:57:43.903Z,11.42
2023-02-19T09:00:47.816Z,11.38
2023-02-19T09:03:50.482Z,11.21
2023-02-19T09:06:53.473Z,11.33
2023-02-19T09:09:56.108Z,11.17
2023-02-19T09:12:59.119Z,11.11
2023-02-19T09:16:04.278Z,11.09
2023-02-19T09:19:07.248Z,11.14
2023-02-19T09:22:10.165Z,11.08
2023-02-19T09:25:13.196Z,11.29
2023-02-19T09:28:16.972Z,11.37
2023-02-19T09:31:20.013Z,11.40
2023-02-19T09:34:22.821Z,11.45
2023-02-19T09:37:27.534Z,11.46
2023-02-19T09:40:30.491Z,11.50
2023-02-19T09:43:34.283Z,11.48
2023-02-19T09:46:46.238Z,11.40
2023-02-19T09:49:52.741Z,11.46
2023-02-19T09:52:59.776Z,11.39
2023-02-19T09:56:02.786Z,11.45
2023-02-19T09:59:06.692Z,11.48
2023-02-19T10:02:21.864Z,11.44
2023-02-19T10:05:26.733Z,11.46
2023-02-19T10:08:35.456Z,11.40
2023-02-19T10:11:38.978Z,11.35
2023-02-19T10:14:49.022Z,11.33
2023-02-19T10:17:52.165Z,11.37
2023-02-19T10:20:56.707Z,11.40
2023-02-19T10:24:04.860Z,11.44
2023-02-19T10:27:15.211Z,11.50
2023-02-19T10:30:26.066Z,11.54
2023-02-19T10:33:29.403Z,11.70
2023-02-19T10:36:36.589Z,11.74
2023-02-19T10:39:45.133Z,11.83
2023-02-19T10:42:52.138Z,11.91
2023-02-19T10:45:55.070Z,11.84
2023-02-19T10:49:07.563Z,11.88
2023-02-19T10:52:21.447Z,11.91
2023-02-19T10:55:31.819Z,11.97
2023-02-19T10:58:34.660Z,12.01
2023-02-19T11:01:52.994Z,12.06
2023-02-19T11:05:04.951Z,12.23
2023-02-19T11:08:22.123Z,12.22
2023-02-19T11:11:40.153Z,12.22
2023-02-19T11:14:45.093Z,12.21
2023-02-19T11:18:12.777Z,12.43
2023-02-19T11:21:28.804Z,12.62
2023-02-19T11:24:40.690Z,12.73
2023-02-19T11:28:09.675Z,12.84
2023-02-19T11:31:33.223Z,12.93
2023-02-19T11:34:36.305Z,13.06
2023-02-19T11:37:55.329Z,12.98
2023-02-19T11:41:29.054Z,12.96
2023-02-19T11:45:07.162Z,13.23
2023-02-19T11:48:30.254Z,13.24
2023-02-19T11:51:53.000Z,13.26
2023-02-19T11:55:23.236Z,13.27
2023-02-19T11:59:01.228Z,13.24
2023-02-19T12:02:26.117Z,13.08
2023-02-19T12:05:33.893Z,13.01
2023-02-19T12:08:41.966Z,12.86
2023-02-19T12:11:53.638Z,12.71
2023-02-19T12:15:20.953Z,13.11
2023-02-19T12:18:44.533Z,13.21
2023-02-19T12:22:13.622Z,13.25
2023-02-19T12:25:25.993Z,13.18
2023-02-19T12:28:49.477Z,12.91
2023-02-19T12:32:20.270Z,13.02
2023-02-19T12:36:09.198Z,13.15
2023-02-19T12:39:36.952Z,13.15
2023-02-19T12:42:39.697Z,13.23
2023-02-19T12:46:08.650Z,13.28
2023-02-19T12:49:19.700Z,13.44
2023-02-19T12:52:27.220Z,13.44
2023-02-19T12:55:35.634Z,13.50
2023-02-19T12:58:50.940Z,13.48
2023-02-19T13:02:00.996Z,13.46
2023-02-19T13:05:25.904Z,13.52
2023-02-19T13:08:34.186Z,13.68
2023-02-19T13:11:44.606Z,13.75
2023-02-19T13:14:53.289Z,13.77
2023-02-19T13:18:01.158Z,13.62
2023-02-19T13:21:06.379Z,13.75
2023-02-19T13:24:14.900Z,13.82
2023-02-19T13:27:41.601Z,13.82
2023-02-19T13:31:22.553Z,13.72
2023-02-19T13:34:56.876Z,13.84
2023-02-19T13:38:03.272Z,13.61
2023-02-19T13:41:06.691Z,13.43
2023-02-19T13:44:37.326Z,13.38
2023-02-19T13:47:55.334Z,13.46
2023-02-19T13:51:27.875Z,13.58
2023-02-19T13:54:33.577Z,13.73
2023-02-19T13:57:37.598Z,13.67
2023-02-19T14:01:01.350Z,13.64
2023-02-19T14:04:18.407Z,13.67
2023-02-19T14:07:35.754Z,13.70
2023-02-19T14:10:54.430Z,13.70
2023-02-19T14:13:59.469Z,13.63
2023-02-19T14:17:41.238Z,13.61
2023-02-19T14:20:45.876Z,13.64
2023-02-19T14:23:57.546Z,13.57
2023-02-19T14:27:00.522Z,13.47
2023-02-19T14:30:05.158Z,13.48
2023-02-19T14:33:11.416Z,13.49
2023-02-19T14:36:29.741Z,13.40
2023-02-19T14:39:37.842Z,13.36
2023-02-19T14:42:41.643Z,13.29
2023-02-19T14:45:52.204Z,13.27
2023-02-19T14:48:58.523Z,13.29
2023-02-19T14:52:06.531Z,13.23
2023-02-19T14:55:34.402Z,13.26
2023-02-19T14:58:40.685Z,13.14
2023-02-19T15:01:44.124Z,13.05
2023-02-19T15:04:47.915Z,12.91
2023-02-19T15:07:54.059Z,12.83
2023-02-19T15:10:57.521Z,12.81
2023-02-19T15:14:08.330Z,12.87
2023-02-19T15:17:16.869Z,12.82
2023-02-19T15:20:25.688Z,12.67
2023-02-19T15:23:31.533Z,12.79
2023-02-19T15:26:43.105Z,12.68
2023-02-19T15:29:48.045Z,12.79
2023-02-19T15:32:52.877Z,12.57
2023-02-19T15:35:59.958Z,12.42
2023-02-19T15:39:03.873Z,12.44
2023-02-19T15:42:11.199Z,12.42
2023-02-19T15:45:19.764Z,12.41
2023-02-19T15:48:30.269Z,12.40
2023-02-19T15:51:49.374Z,12.23
2023-02-19T15:55:07.222Z,12.20
2023-02-19T15:58:48.514Z,12.11
2023-02-19T16:01:51.558Z,11.97
2023-02-19T16:04:54.741Z,11.92
2023-02-19T16:08:17.156Z,11.83
2023-02-19T16:11:22.796Z,11.70
2023-02-19T16:14:30.167Z,11.58
2023-02-19T16:17:34.092Z,11.46
2023-02-19T16:20:36.974Z,11.49
2023-02-19T16:23:45.179Z,11.64
2023-02-19T16:26:48.479Z,11.56
2023-02-19T16:29:52.356Z,11.46
2023-02-19T16:33:20.499Z,11.41
2023-02-19T16:36:32.625Z,11.52
2023-02-19T16:39:35.523Z,11.36
2023-02-19T16:43:04.257Z,11.36
2023-02-19T16:46:10.298Z,11.17
2023-02-19T16:49:13.623Z,11.12
2023-02-19T16:52:17.023Z,11.06
2023-02-19T16:55:20.310Z,11.07
2023-02-19T16:58:23.176Z,10.89
2023-02-19T17:01:32.157Z,10.79
2023-02-19T17:04:35.317Z,10.71
2023-02-19T17:07:38.560Z,10.56
2023-02-19T17:10:41.448Z,10.42
2023-02-19T17:13:46.355Z,10.41
2023-02-19T17:16:49.775Z,10.14
2023-02-19T17:19:52.935Z,10.29
2023-02-19T17:22:57.043Z,10.29
2023-02-19T17:26:00.305Z,10.24
2023-02-19T17:29:05.962Z,10.22
2023-02-19T17:32:09.576Z,10.10
2023-02-19T17:35:13.671Z,9.99
2023-02-19T17:38:17.153Z,9.78
2023-02-19T17:41:20.016Z,9.72
2023-02-19T17:44:22.887Z,9.67
2023-02-19T17:47:25.729Z,9.70
2023-02-19T17:50:31.933Z,9.45
2023-02-19T17:53:35.013Z,9.52
2023-02-19T17:56:43.212Z,9.51
2023-02-19T17:59:46.400Z,9.33
2023-02-19T18:02:50.432Z,9.23
2023-02-19T18:05:53.741Z,9.37
2023-02-19T18:08:56.583Z,9.45
2023-02-19T18:12:00.242Z,9.34
2023-02-19T18:15:03.124Z,9.44
2023-02-19T18:18:06.362Z,9.57
2023-02-19T18:21:10.672Z,10.01
2023-02-19T18:24:14.233Z,10.24
2023-02-19T18:27:20.317Z,10.41
2023-02-19T18:30:24.370Z,10.81
2023-02-19T18:33:27.747Z,10.66
2023-02-19T18:36:33.182Z,10.69
2023-02-19T18:39:37.304Z,10.67
2023-02-19T18:42:40.977Z,10.62
2023-02-19T18:45:45.527Z,10.62
2023-02-19T18:48:48.907Z,10.39
2023-02-19T18:51:51.877Z,10.21
2023-02-19T18:54:58.456Z,10.16
2023-02-19T18:58:01.400Z,10.15
2023-02-19T19:01:08.244Z,10.11
2023-02-19T19:04:11.474Z,10.43
2023-02-19T19:07:14.425Z,10.63
2023-02-19T19:10:18.301Z,10.66
2023-02-19T19:13:21.818Z,10.66
2023-02-19T19:16:29.900Z,10.71
2023-02-19T19:19:33.287Z,10.67
2023-02-19T19:22:37.583Z,10.56
2023-02-19T19:25:40.707Z,10.45
2023-02-19T19:28:44.772Z,10.43
2023-02-19T19:31:48.407Z,10.29
2023-02-19T19:34:51.678Z,10.29
2023-02-19T19:37:54.550Z,10.25
2023-02-19T19:40:57.450Z,10.09
2023-02-19T19:44:08.490Z,10.08
2023-02-19T19:47:11.560Z,10.03
2023-02-19T19:50:18.394Z,10.08
2023-02-19T19:53:21.466Z,9.91
2023-02-19T19:56:24.798Z,9.76
2023-02-19T19:59:27.910Z,9.75
2023-02-19T20:02:31.218Z,9.85
2023-02-19T20:05:34.687Z,9.76
2023-02-19T20:08:37.381Z,9.62
2023-02-19T20:11:48.647Z,9.55
2023-02-19T20:14:51.290Z,9.60
2023-02-19T20:17:54.970Z,9.47
2023-02-19T20:20:59.759Z,9.40
2023-02-19T20:24:03.589Z,9.26
2023-02-19T20:27:06.566Z,9.30
2023-02-19T20:30:13.611Z,9.19
2023-02-19T20:33:17.077Z,9.14
2023-02-19T20:36:21.318Z,9.15
2023-02-19T20:39:28.946Z,9.18
2023-02-19T20:42:32.940Z,9.10
2023-02-19T20:45:35.808Z,9.10
2023-02-19T20:48:39.362Z,8.98
2023-02-19T20:51:51.985Z,8.91
2023-02-19T20:54:56.606Z,8.95
2023-02-19T20:57:59.553Z,8.88
2023-02-19T21:01:02.942Z,8.81
2023-02-19T21:04:07.038Z,8.74
2023-02-19T21:07:10.265Z,8.70
2023-02-19T21:10:13.222Z,8.69
2023-02-19T21:13:16.517Z,8.61
2023-02-19T21:16:20.515Z,8.58
2023-02-19T21:19:23.665Z,8.66
2023-02-19T21:22:27.530Z,8.76
2023-02-19T21:25:33.233Z,8.61
2023-02-19T21:28:38.404Z,8.70
2023-02-19T21:31:44.901Z,8.50
2023-02-19T21:34:47.854Z,8.48
2023-02-19T21:37:50.955Z,8.48
2023-02-19T21:40:55.055Z,8.40
2023-02-19T21:43:59.358Z,8.44
2023-02-19T21:47:02.106Z,8.31
2023-02-19T21:50:05.859Z,8.20
2023-02-19T21:53:08.497Z,8.17
2023-02-19T21:56:11.488Z,8.04
2023-02-19T21:59:14.814Z,8.02
2023-02-19T22:02:22.245Z,7.92
2023-02-19T22:05:26.205Z,7.90
2023-02-19T22:08:28.966Z,7.96
2023-02-19T22:11:31.888Z,7.95
2023-02-19T22:14:34.533Z,7.91
2023-02-19T22:17:38.479Z,7.70
2023-02-19T22:20:41.505Z,7.87
2023-02-19T22:23:46.487Z,7.87
2023-02-19T22:26:50.696Z,7.76
2023-02-19T22:29:53.665Z,7.69
2023-02-19T22:32:56.297Z,7.69
2023-02-19T22:35:59.167Z,7.63
2023-02-19T22:39:02.010Z,7.55
2023-02-19T22:42:05.232Z,7.49
2023-02-19T22:45:08.349Z,7.60
2023-02-19T22:48:13.094Z,7.51
2023-02-19T22:51:20.009Z,7.44
2023-02-19T22:54:26.913Z,7.49
2023-02-19T22:57:29.546Z,7.44
2023-02-19T23:00:32.481Z,7.38
2023-02-19T23:03:44.218Z,7.37
2023-02-19T23:06:47.297Z,7.36
2023-02-19T23:09:50.331Z,7.41
2023-02-19T23:12:53.233Z,7.36
2023-02-19T23:15:55.870Z,7.16
2023-02-19T23:18:58.781Z,7.12
2023-02-19T23:22:01.535Z,7.04
2023-02-19T23:25:04.744Z,7.09
2023-02-19T23:28:07.586Z,6.96
2023-02-19T23:31:11.864Z,7.00
2023-02-19T23:34:15.108Z,7.02
2023-02-19T23:37:18.218Z,6.91
2023-02-19T23:40:21.241Z,6.95
2023-02-19T23:43:24.244Z,6.85
2023-02-19T23:46:27.165Z,6.83
2023-02-19T23:49:30.105Z,6.78
2023-02-19T23:52:32.813Z,6.73
2023-02-19T23:55:36.175Z,6.78
2023-02-19T23:58:38.845Z,6.92
